Hardwood, Louisiana
Current Conditions -  °F | °C
As of 1:35 PM on Saturday 25 Oct 2014 (Local Time) from KHZR Reporting Station
Clear Clear  
Wind Chill: 25°   Ceiling: Unl
Heat Index: 26°   Visibility: 10mi
Dew Point: 12°   Wind: 5mph
Humidity: 43%   Direction: 310°NW
Pressure: 30.13"   Gusts: NA
Location:  30.8804°N, 91.4243°W
Report Text: KHZR 251835Z AUTO 31004KT 10SM CLR 25/12 A3013 RMK AO2 T02540120
Loading
Personal Weather Stations






























Interactive Weather Map
Tropical Storm Tracking
New forecast layout! Learn more

10-Day Weather Forecast

Advertisements
Track Severe Weather on mobile